Time;durP1;ratioP1;P1;durP2;ratioP2;P2;SDS_P1;SDS_P2;PMS_P1;PMS_P2;Temp;Humidity;BMP_temperature;BMP_pressure;BME280_temperature;BME280_humidity;BME280_pressure;Samples;Min_cycle;Max_cycle;Signal;HPM_P1;HPM_P2
2022/04/16 00:00:52;;;;;;;4.00;2.73;;;2.70;99.90;;;;;;5113352;28;20481;-73
2022/04/16 00:03:21;;;;;;;6.10;2.10;;;2.70;99.90;;;;;;5104973;28;20080;-73
2022/04/16 00:05:48;;;;;;;3.43;2.10;;;2.70;99.90;;;;;;5094957;28;20078;-73
2022/04/16 00:08:16;;;;;;;4.70;1.80;;;2.60;99.90;;;;;;5095530;28;20060;-73
2022/04/16 00:10:43;;;;;;;3.03;2.17;;;2.60;99.90;;;;;;5095845;28;20036;-73
2022/04/16 00:13:09;;;;;;;7.33;2.97;;;2.50;99.90;;;;;;5094689;28;20052;-73
2022/04/16 00:15:38;;;;;;;8.43;2.67;;;2.50;99.90;;;;;;5111011;28;20112;-73
2022/04/16 00:18:05;;;;;;;5.23;2.90;;;2.40;99.90;;;;;;5113033;28;20059;-73
2022/04/16 00:20:34;;;;;;;5.87;2.10;;;2.20;99.90;;;;;;5115007;28;20043;-73
2022/04/16 00:23:00;;;;;;;1.80;1.57;;;2.20;99.90;;;;;;5100175;28;20048;-73
2022/04/16 00:25:28;;;;;;;2.43;2.23;;;2.20;99.90;;;;;;5094145;28;20486;-72
2022/04/16 00:27:55;;;;;;;7.60;2.20;;;2.20;99.90;;;;;;5095449;28;20210;-73
2022/04/16 00:30:22;;;;;;;3.43;2.33;;;2.10;99.90;;;;;;5112945;28;20040;-73
2022/04/16 00:32:51;;;;;;;2.27;1.80;;;2.10;99.90;;;;;;5113211;28;20081;-73
2022/04/16 00:35:20;;;;;;;4.43;1.77;;;2.10;99.90;;;;;;5099519;28;20052;-73
2022/04/16 00:37:47;;;;;;;1.93;1.63;;;2.10;99.90;;;;;;5094167;28;20093;-72
2022/04/16 00:40:14;;;;;;;3.27;2.03;;;2.00;99.90;;;;;;5095751;28;20048;-72
2022/04/16 00:42:44;;;;;;;2.33;1.87;;;2.10;99.90;;;;;;5095219;28;20040;-72
2022/04/16 00:45:11;;;;;;;2.67;2.07;;;2.10;99.90;;;;;;5094297;28;20044;-72
2022/04/16 00:47:37;;;;;;;2.20;2.00;;;2.00;99.90;;;;;;5094319;28;20048;-72
2022/04/16 00:50:05;;;;;;;1.93;1.83;;;2.00;99.90;;;;;;5094919;28;20539;-72
2022/04/16 00:52:31;;;;;;;5.40;2.97;;;2.00;99.90;;;;;;5094274;28;20048;-71
2022/04/16 00:54:58;;;;;;;2.37;2.17;;;2.00;99.90;;;;;;5095475;28;20056;-72
2022/04/16 00:57:25;;;;;;;1.83;1.53;;;1.90;99.90;;;;;;5093908;28;20097;-72
2022/04/16 00:59:53;;;;;;;2.87;2.10;;;1.80;99.90;;;;;;5094549;28;20477;-73
2022/04/16 01:02:21;;;;;;;2.37;2.17;;;1.90;99.90;;;;;;5094020;28;20056;-72
2022/04/16 01:04:48;;;;;;;3.77;1.97;;;1.90;99.90;;;;;;5095741;28;20040;-72
2022/04/16 01:07:14;;;;;;;3.83;2.17;;;1.80;99.90;;;;;;5113707;28;20375;-72
2022/04/16 01:09:41;;;;;;;4.70;2.30;;;1.80;99.90;;;;;;5104375;28;20429;-72
2022/04/16 01:12:09;;;;;;;3.00;1.80;;;1.80;99.90;;;;;;5110976;28;20043;-72
2022/04/16 01:14:37;;;;;;;1.43;1.20;;;1.70;99.90;;;;;;5112166;28;20481;-72
2022/04/16 01:17:06;;;;;;;2.37;2.17;;;1.70;99.90;;;;;;5114140;28;20055;-72
2022/04/16 01:19:34;;;;;;;2.17;1.70;;;1.80;99.90;;;;;;5113805;28;20043;-72
2022/04/16 01:22:01;;;;;;;3.67;2.50;;;1.70;99.90;;;;;;5112231;28;20044;-72
2022/04/16 01:24:29;;;;;;;4.13;1.97;;;1.80;99.90;;;;;;5113974;28;20052;-72
2022/04/16 01:26:58;;;;;;;2.17;1.97;;;1.80;99.90;;;;;;5094665;28;20044;-72
2022/04/16 01:29:25;;;;;;;6.83;3.07;;;1.90;99.90;;;;;;5093624;28;20470;-72
2022/04/16 01:31:52;;;;;;;2.97;2.63;;;1.90;99.90;;;;;;5094064;28;20481;-72
2022/04/16 01:34:20;;;;;;;3.63;2.10;;;2.00;99.90;;;;;;5093184;28;20599;-72
2022/04/16 01:36:46;;;;;;;2.63;2.43;;;2.10;99.90;;;;;;5094532;28;20494;-73
2022/04/16 01:39:13;;;;;;;2.37;1.47;;;2.10;99.90;;;;;;5095825;28;20477;-73
2022/04/16 01:41:41;;;;;;;8.70;2.20;;;2.20;99.90;;;;;;5095153;28;20105;-73
2022/04/16 01:44:08;;;;;;;2.33;1.80;;;2.40;99.90;;;;;;5098723;28;20054;-73
2022/04/16 01:46:35;;;;;;;2.47;1.50;;;2.40;99.90;;;;;;5112840;28;20455;-73
2022/04/16 01:49:02;;;;;;;2.40;2.17;;;2.40;99.90;;;;;;5118039;28;20402;-73
2022/04/16 01:51:29;;;;;;;5.43;2.67;;;2.50;99.90;;;;;;5117815;28;20044;-73
2022/04/16 01:53:56;;;;;;;2.40;1.90;;;2.60;99.90;;;;;;5114310;28;20043;-73
2022/04/16 01:56:22;;;;;;;3.57;2.00;;;2.60;99.90;;;;;;5116429;28;20044;-73
2022/04/16 01:58:50;;;;;;;6.43;1.90;;;2.60;99.90;;;;;;5117044;28;20089;-73
2022/04/16 02:01:18;;;;;;;1.80;1.67;;;2.60;99.90;;;;;;5117934;28;20459;-73
2022/04/16 02:03:44;;;;;;;2.47;2.00;;;2.60;99.90;;;;;;5116018;28;20044;-73
2022/04/16 02:06:11;;;;;;;6.43;2.63;;;2.60;99.90;;;;;;5109530;28;20052;-73
2022/04/16 02:08:37;;;;;;;3.20;2.33;;;2.50;99.90;;;;;;5097932;28;20048;-72
2022/04/16 02:11:04;;;;;;;2.23;2.03;;;2.50;99.90;;;;;;5110873;28;20044;-72
2022/04/16 02:13:31;;;;;;;2.20;1.40;;;2.50;99.90;;;;;;5117772;28;20055;-73
2022/04/16 02:15:59;;;;;;;1.37;1.27;;;2.50;99.90;;;;;;5115891;28;20139;-73
2022/04/16 02:18:27;;;;;;;3.00;1.50;;;2.50;99.90;;;;;;5115725;28;20052;-72
2022/04/16 02:20:54;;;;;;;1.20;1.07;;;2.50;99.90;;;;;;5117065;28;20051;-73
2022/04/16 02:23:21;;;;;;;1.67;1.43;;;2.50;99.90;;;;;;5117527;28;20104;-73
2022/04/16 02:25:47;;;;;;;3.30;1.90;;;2.60;99.90;;;;;;5115607;28;20435;-73
2022/04/16 02:28:14;;;;;;;3.13;2.20;;;2.70;99.90;;;;;;5115319;28;20059;-73
2022/04/16 02:30:41;;;;;;;3.07;1.70;;;2.70;99.90;;;;;;5110623;28;20097;-73
2022/04/16 02:33:10;;;;;;;4.97;2.00;;;2.70;99.90;;;;;;5098317;28;20048;-72
2022/04/16 02:35:37;;;;;;;1.60;1.50;;;2.70;99.90;;;;;;5115571;28;20051;-73
2022/04/16 02:38:03;;;;;;;2.30;1.57;;;2.80;99.90;;;;;;5117212;28;20054;-72
2022/04/16 02:40:30;;;;;;;1.63;1.47;;;2.80;99.90;;;;;;5115011;28;20052;-73
2022/04/16 02:42:57;;;;;;;1.50;1.30;;;2.80;99.90;;;;;;5097953;28;20040;-73
2022/04/16 02:48:09;;;;;;;2.90;1.30;;;2.70;99.90;;;;;;5115064;28;20476;-72
2022/04/16 02:50:36;;;;;;;3.83;3.60;;;2.80;99.90;;;;;;5115268;28;20043;-73
2022/04/16 02:53:03;;;;;;;2.20;1.63;;;2.90;99.90;;;;;;5116876;28;20047;-72
2022/04/16 02:55:29;;;;;;;3.63;2.13;;;3.00;99.90;;;;;;5116543;28;20132;-72
2022/04/16 02:57:56;;;;;;;3.50;1.90;;;3.00;99.90;;;;;;5114887;28;20048;-73
2022/04/16 03:00:24;;;;;;;2.73;2.43;;;3.00;99.90;;;;;;5115009;28;20116;-72
2022/04/16 03:02:51;;;;;;;1.40;1.30;;;3.00;99.90;;;;;;5097582;28;20052;-73
2022/04/16 03:05:19;;;;;;;2.40;1.97;;;3.20;99.90;;;;;;5096258;28;20048;-71
2022/04/16 03:07:46;;;;;;;1.70;1.60;;;3.20;99.90;;;;;;5095957;28;20093;-72
2022/04/16 03:10:13;;;;;;;3.20;1.27;;;3.20;99.90;;;;;;5096265;28;20083;-73
2022/04/16 03:12:45;;;;;;;4.03;1.80;;;3.20;99.90;;;;;;5110908;28;20047;-72
2022/04/16 03:17:53;;;;;;;3.03;1.65;;;3.20;99.90;;;;;;5071226;28;20474;-72
2022/04/16 03:20:22;;;;;;;3.67;1.60;;;3.30;99.90;;;;;;5095953;28;20094;-71
2022/04/16 03:22:48;;;;;;;1.03;1.03;;;3.40;99.90;;;;;;5097051;28;20065;-72
2022/04/16 03:25:15;;;;;;;2.73;1.90;;;3.40;99.90;;;;;;5095945;28;20086;-72
2022/04/16 03:27:42;;;;;;;1.60;1.50;;;3.50;99.90;;;;;;5096951;28;20443;-71
2022/04/16 03:30:10;;;;;;;1.40;1.30;;;3.50;99.90;;;;;;5110541;28;20149;-71
2022/04/16 03:32:39;;;;;;;4.00;1.47;;;3.60;99.90;;;;;;5112450;28;20044;-72
2022/04/16 03:35:07;;;;;;;1.20;1.10;;;3.60;99.90;;;;;;5095311;28;20040;-72
2022/04/16 03:37:35;;;;;;;5.90;1.57;;;3.60;99.90;;;;;;5096607;28;20048;-72
2022/04/16 03:40:02;;;;;;;2.63;1.43;;;3.70;99.90;;;;;;5095585;28;20051;-72
2022/04/16 03:42:29;;;;;;;3.10;1.30;;;3.80;99.90;;;;;;5096619;28;20101;-73
2022/04/16 03:44:56;;;;;;;2.30;2.10;;;3.80;99.90;;;;;;5095473;28;20455;-72
2022/04/16 03:47:23;;;;;;;3.60;1.10;;;3.90;99.90;;;;;;5095471;28;20048;-72
2022/04/16 03:49:51;;;;;;;5.30;1.30;;;4.00;99.90;;;;;;5096432;28;20044;-72
2022/04/16 03:52:18;;;;;;;2.80;1.10;;;3.90;99.90;;;;;;5095386;28;20087;-73
2022/04/16 04:00:14;;;;;;;1.30;1.20;;;4.10;99.90;;;;;;5113464;28;20059;-73
2022/04/16 04:02:41;;;;;;;2.60;1.30;;;4.10;99.90;;;;;;5114992;28;20043;-73
2022/04/16 04:05:08;;;;;;;3.70;2.10;;;4.10;99.90;;;;;;5095609;28;20128;-71
2022/04/16 04:07:35;;;;;;;6.50;3.53;;;4.10;99.90;;;;;;5094963;28;20055;-73
2022/04/16 04:10:03;;;;;;;6.80;2.87;;;4.20;99.90;;;;;;5095111;28;20108;-72
2022/04/16 04:12:30;;;;;;;5.83;3.17;;;4.20;99.90;;;;;;5094912;28;20048;-72
2022/04/16 04:14:59;;;;;;;3.33;1.63;;;4.20;99.90;;;;;;5096906;28;20102;-73
2022/04/16 04:17:25;;;;;;;4.23;3.10;;;4.30;99.90;;;;;;5097102;28;20097;-73
2022/04/16 04:19:52;;;;;;;8.47;2.40;;;4.30;99.90;;;;;;5115181;28;20047;-73
2022/04/16 04:22:19;;;;;;;2.30;1.37;;;4.30;99.90;;;;;;5114876;28;20043;-72
2022/04/16 04:24:46;;;;;;;5.00;1.27;;;4.30;99.90;;;;;;5111374;28;20044;-72
2022/04/16 04:27:14;;;;;;;0.80;0.70;;;4.20;99.90;;;;;;5114749;28;20405;-72
2022/04/16 04:29:41;;;;;;;1.10;1.10;;;4.20;99.90;;;;;;5114674;28;20554;-72
2022/04/16 04:32:08;;;;;;;1.67;1.00;;;4.30;99.90;;;;;;5101572;28;20044;-72
2022/04/16 04:34:35;;;;;;;1.83;1.23;;;4.30;99.90;;;;;;5095519;28;20089;-72
2022/04/16 04:37:02;;;;;;;1.53;1.03;;;4.40;99.90;;;;;;5095531;28;20048;-72
2022/04/16 04:39:29;;;;;;;1.37;1.27;;;4.40;99.90;;;;;;5094485;28;20047;-72
2022/04/16 04:41:55;;;;;;;2.67;1.30;;;4.40;99.90;;;;;;5094430;28;20047;-72
2022/04/16 04:44:23;;;;;;;1.03;0.93;;;4.40;99.90;;;;;;5094746;28;20044;-72
2022/04/16 04:46:50;;;;;;;1.20;0.80;;;4.40;99.90;;;;;;5096047;28;20040;-72
2022/04/16 04:49:16;;;;;;;3.87;1.37;;;4.40;99.90;;;;;;5094171;28;20113;-73
2022/04/16 04:51:43;;;;;;;2.57;1.03;;;4.40;99.90;;;;;;5095034;28;20101;-73
2022/04/16 04:54:10;;;;;;;163.47;132.47;;;4.50;99.90;;;;;;5113419;28;20043;-73
2022/04/16 04:56:37;;;;;;;1.07;0.87;;;4.50;99.90;;;;;;5110917;28;20039;-72
2022/04/16 04:59:04;;;;;;;4.03;1.10;;;4.50;99.90;;;;;;5113991;28;20047;-73
2022/04/16 05:01:32;;;;;;;2.10;1.13;;;4.50;99.90;;;;;;5114147;28;20481;-73
2022/04/16 05:03:58;;;;;;;1.17;1.07;;;4.60;99.90;;;;;;5114416;28;20044;-73
2022/04/16 05:06:25;;;;;;;1.40;1.23;;;4.60;99.90;;;;;;5112043;28;20051;-73
2022/04/16 05:08:52;;;;;;;3.33;0.97;;;4.60;99.90;;;;;;5071975;28;20052;-74
2022/04/16 05:11:19;;;;;;;5.70;1.27;;;4.70;99.90;;;;;;5073169;28;20552;-73
2022/04/16 05:13:45;;;;;;;4.43;1.13;;;4.70;99.90;;;;;;5073396;28;20494;-73
2022/04/16 05:16:13;;;;;;;2.33;1.53;;;4.70;99.90;;;;;;5072686;28;20052;-73
2022/04/16 05:18:41;;;;;;;0.73;0.73;;;4.70;99.90;;;;;;5069665;28;20390;-73
2022/04/16 05:21:08;;;;;;;5.50;1.37;;;4.70;99.90;;;;;;5057227;28;20091;-73
2022/04/16 05:23:35;;;;;;;1.03;1.03;;;4.90;99.90;;;;;;5053334;28;20053;-73
2022/04/16 05:26:02;;;;;;;2.10;0.90;;;4.90;99.90;;;;;;5053506;28;20076;-73
2022/04/16 05:28:28;;;;;;;2.83;1.40;;;4.90;99.90;;;;;;5055076;28;20041;-72
2022/04/16 05:30:58;;;;;;;1.10;0.97;;;5.00;99.90;;;;;;5053312;28;20449;-73
2022/04/16 05:36:11;;;;;;;1.97;1.33;;;5.00;99.90;;;;;;5072848;28;20144;-73
2022/04/16 05:38:38;;;;;;;4.37;1.40;;;5.10;99.90;;;;;;5071203;28;20457;-72
2022/04/16 05:41:04;;;;;;;2.30;1.27;;;5.10;99.90;;;;;;5053150;28;20045;-73
2022/04/16 05:43:31;;;;;;;4.87;1.47;;;5.20;99.90;;;;;;5054336;28;20045;-73
2022/04/16 05:45:58;;;;;;;1.23;1.13;;;5.20;99.90;;;;;;5052807;28;20462;-73
2022/04/16 05:48:24;;;;;;;2.23;1.27;;;5.10;99.90;;;;;;5064988;28;20094;-73
2022/04/16 05:50:51;;;;;;;2.07;1.20;;;5.10;99.90;;;;;;5054086;28;20045;-72
2022/04/16 05:53:19;;;;;;;2.03;1.43;;;5.20;99.90;;;;;;5058333;28;20051;-73
2022/04/16 05:55:48;;;;;;;3.27;1.10;;;5.20;99.90;;;;;;5072941;28;20044;-73
2022/04/16 05:58:15;;;;;;;2.10;1.43;;;5.30;99.90;;;;;;5073334;28;20140;-73
2022/04/16 06:00:42;;;;;;;1.13;1.03;;;5.40;99.90;;;;;;5070685;28;20048;-74
2022/04/16 06:03:09;;;;;;;2.53;1.17;;;5.40;99.90;;;;;;5059307;28;20071;-73
2022/04/16 06:05:36;;;;;;;2.80;1.50;;;5.50;99.90;;;;;;5070703;28;20102;-74
2022/04/16 06:08:03;;;;;;;1.97;1.30;;;5.50;99.90;;;;;;5098874;28;20475;-72
2022/04/16 06:10:30;;;;;;;2.63;1.33;;;5.60;99.90;;;;;;5106793;28;20070;-72
2022/04/16 06:12:57;;;;;;;1.33;0.73;;;5.70;99.90;;;;;;5094259;28;20093;-72
2022/04/16 06:15:24;;;;;;;4.13;1.00;;;5.80;99.90;;;;;;5104532;28;20048;-69
2022/04/16 06:17:51;;;;;;;0.93;0.80;;;5.80;99.90;;;;;;5093160;28;20094;-72
2022/04/16 06:20:17;;;;;;;1.00;1.00;;;5.90;99.90;;;;;;5093365;28;20429;-73
2022/04/16 06:22:44;;;;;;;1.50;1.40;;;5.90;99.90;;;;;;5093887;28;20127;-74
2022/04/16 06:25:10;;;;;;;2.23;1.87;;;5.90;99.90;;;;;;5094196;28;20074;-73
2022/04/16 06:27:39;;;;;;;1.93;1.13;;;6.00;99.90;;;;;;5094593;28;20044;-73
2022/04/16 06:30:08;;;;;;;2.40;2.20;;;6.10;99.90;;;;;;5096865;28;20105;-73
2022/04/16 06:32:35;;;;;;;3.03;1.10;;;6.30;99.90;;;;;;5098003;28;20044;-74
2022/04/16 06:35:02;;;;;;;4.13;1.47;;;6.50;99.90;;;;;;5105773;28;20065;-75
2022/04/16 06:37:29;;;;;;;1.73;1.00;;;6.60;99.90;;;;;;5116497;28;20075;-76
2022/04/16 06:39:55;;;;;;;3.13;1.10;;;6.80;99.90;;;;;;5098529;28;20048;-76
2022/04/16 06:42:22;;;;;;;1.83;0.57;;;6.60;99.90;;;;;;5100013;28;20089;-75
2022/04/16 06:44:50;;;;;;;1.17;1.07;;;6.40;99.90;;;;;;5111277;28;20044;-75
2022/04/16 06:47:16;;;;;;;3.73;1.13;;;6.70;99.90;;;;;;5096027;28;20093;-75
2022/04/16 06:49:43;;;;;;;2.63;1.00;;;7.00;99.90;;;;;;5097471;28;20048;-75
2022/04/16 06:52:12;;;;;;;1.27;0.65;;;7.50;99.90;;;;;;5102279;28;20055;-73
2022/04/16 06:54:39;;;;;;;2.05;1.17;;;8.00;99.90;;;;;;5116835;28;20052;-73
2022/04/16 06:57:06;;;;;;;0.80;0.80;;;8.40;99.90;;;;;;5117054;28;20052;-76
2022/04/16 06:59:32;;;;;;;0.85;0.85;;;8.40;99.90;;;;;;5116826;28;20051;-73
2022/04/16 07:02:00;;;;;;;4.55;1.60;;;8.20;99.90;;;;;;5114693;28;20604;-73
2022/04/16 07:04:27;;;;;;;4.68;1.00;;;8.60;99.90;;;;;;5114818;28;20052;-71
2022/04/16 07:06:53;;;;;;;104.13;44.92;;;9.00;99.90;;;;;;5096515;28;20085;-73
2022/04/16 07:09:20;;;;;;;4.38;0.98;;;9.10;99.90;;;;;;5110961;28;20117;-71
2022/04/16 07:11:47;;;;;;;1.60;0.82;;;9.00;99.90;;;;;;5103181;28;20109;-72
2022/04/16 07:14:13;;;;;;;1.73;0.90;;;9.50;99.90;;;;;;5096082;28;20052;-71
2022/04/16 07:16:40;;;;;;;1.15;0.93;;;10.00;99.90;;;;;;5095842;28;20093;-71
2022/04/16 07:19:09;;;;;;;1.15;0.93;;;10.20;99.90;;;;;;5095959;28;20099;-71
2022/04/16 07:21:35;;;;;;;3.35;1.13;;;10.60;99.90;;;;;;5095981;28;20052;-71
2022/04/16 07:24:02;;;;;;;1.13;0.95;;;11.00;99.90;;;;;;5095963;28;20507;-71
2022/04/16 07:26:29;;;;;;;2.28;0.77;;;11.00;99.90;;;;;;5095652;28;20047;-72
2022/04/16 07:28:55;;;;;;;1.02;0.80;;;11.40;99.90;;;;;;5095843;28;20471;-72
2022/04/16 07:31:22;;;;;;;2.17;0.85;;;11.70;98.40;;;;;;5095343;28;20481;-71
2022/04/16 07:33:48;;;;;;;1.48;1.35;;;11.80;96.40;;;;;;5095609;28;20121;-71
2022/04/16 07:36:16;;;;;;;3.85;1.08;;;12.20;95.40;;;;;;5095260;28;20501;-71
2022/04/16 07:38:43;;;;;;;6.57;2.60;;;12.90;95.10;;;;;;5094686;28;20101;-72
2022/04/16 07:41:10;;;;;;;3.78;1.08;;;13.20;92.60;;;;;;5095439;28;20067;-71
2022/04/16 07:43:37;;;;;;;2.35;1.20;;;13.10;90.40;;;;;;5095341;28;20075;-72
2022/04/16 07:46:03;;;;;;;0.93;0.93;;;12.60;88.00;;;;;;5095298;28;20101;-72
2022/04/16 07:48:30;;;;;;;1.10;0.88;;;12.40;88.20;;;;;;5095179;28;20110;-72
2022/04/16 07:50:57;;;;;;;3.38;1.00;;;12.70;88.50;;;;;;5094964;28;20052;-71
2022/04/16 07:53:25;;;;;;;2.35;0.80;;;13.20;88.50;;;;;;5095414;28;20109;-73
2022/04/16 07:55:51;;;;;;;2.05;1.65;;;13.40;86.30;;;;;;5095108;28;20117;-72
2022/04/16 07:58:18;;;;;;;4.35;1.38;;;13.60;85.20;;;;;;5095043;28;20044;-73
2022/04/16 08:00:44;;;;;;;3.20;1.75;;;13.60;83.50;;;;;;5094881;28;20448;-72
2022/04/16 08:03:11;;;;;;;2.22;1.23;;;13.70;83.70;;;;;;5094997;28;20048;-72
2022/04/16 08:05:37;;;;;;;2.55;0.85;;;13.60;80.70;;;;;;5094956;28;20047;-72
2022/04/16 08:08:05;;;;;;;1.65;0.95;;;12.90;79.50;;;;;;5094486;28;20482;-72
2022/04/16 08:10:34;;;;;;;0.77;0.73;;;13.20;81.30;;;;;;5094936;28;20054;-72
2022/04/16 08:13:01;;;;;;;3.40;1.25;;;13.30;80.50;;;;;;5094727;28;20070;-72
2022/04/16 08:15:27;;;;;;;1.58;1.20;;;13.00;80.80;;;;;;5094748;28;20052;-72
2022/04/16 08:17:54;;;;;;;1.35;1.08;;;13.40;83.20;;;;;;5094464;28;20168;-72
2022/04/16 08:20:21;;;;;;;1.42;0.90;;;13.90;81.10;;;;;;5094714;28;20386;-73
2022/04/16 08:22:47;;;;;;;2.97;1.08;;;13.50;77.00;;;;;;5094516;28;20066;-72
2022/04/16 08:28:00;;;;;;;1999.90;999.90;;;13.00;78.70;;;;;;5094161;28;20421;-72
2022/04/16 08:30:27;;;;;;;1999.90;999.90;;;12.80;81.30;;;;;;5094463;28;20052;-72
2022/04/16 08:32:53;;;;;;;1999.90;999.90;;;13.80;81.80;;;;;;5094104;28;20113;-73
2022/04/16 08:35:21;;;;;;;1999.90;999.90;;;14.50;77.40;;;;;;5094151;28;20051;-73
2022/04/16 08:37:49;;;;;;;1999.90;999.90;;;15.30;76.20;;;;;;5094098;28;20040;-72
2022/04/16 08:40:16;;;;;;;1999.90;999.90;;;15.60;72.10;;;;;;5093984;28;20454;-72
2022/04/16 08:42:45;;;;;;;1999.90;999.90;;;15.50;71.50;;;;;;5094341;28;20048;-71
2022/04/16 08:45:13;;;;;;;1999.90;999.90;;;15.50;69.10;;;;;;5094001;28;20485;-72
2022/04/16 08:47:40;;;;;;;35.75;34.45;;;15.50;66.00;;;;;;5094259;28;20458;-72
2022/04/16 08:50:09;;;;;;;19.75;18.35;;;15.60;66.70;;;;;;5094134;28;20382;-72
2022/04/16 08:52:38;;;;;;;27.75;26.55;;;16.20;66.90;;;;;;5094327;28;20090;-72
2022/04/16 08:55:07;;;;;;;4.90;4.70;;;16.90;65.40;;;;;;5094128;28;20048;-72
2022/04/16 08:57:34;;;;;;;3.00;2.80;;;17.00;62.00;;;;;;5094105;28;20443;-73
2022/04/16 09:00:00;;;;;;;6.28;2.65;;;16.80;60.30;;;;;;5094159;28;20082;-73
2022/04/16 09:02:29;;;;;;;1.38;0.70;;;16.80;58.60;;;;;;5093827;28;20044;-72
2022/04/16 09:05:04;;;;;;;0.98;0.60;;;16.20;57.40;;;;;;5094180;28;20109;-73
2022/04/16 09:07:31;;;;;;;1.30;0.70;;;16.00;58.80;;;;;;5093541;28;20105;-73
2022/04/16 09:10:07;;;;;;;1.02;0.60;;;16.10;58.90;;;;;;5093941;28;20044;-72
2022/04/16 09:12:37;;;;;;;1.33;0.85;;;16.20;58.10;;;;;;5093922;28;20047;-72
2022/04/16 09:15:08;;;;;;;2.08;0.75;;;16.70;57.10;;;;;;5093853;28;20044;-73
2022/04/16 09:17:36;;;;;;;0.73;0.50;;;16.60;56.20;;;;;;5093704;28;20101;-72
2022/04/16 09:20:04;;;;;;;1.17;0.77;;;16.90;55.50;;;;;;5093836;28;20093;-72
2022/04/16 09:22:32;;;;;;;2.67;0.88;;;17.50;55.40;;;;;;5093724;28;20093;-73
2022/04/16 09:24:59;;;;;;;1.02;0.60;;;17.50;55.70;;;;;;5093735;28;20052;-73
2022/04/16 09:27:25;;;;;;;2.05;1.00;;;17.50;55.50;;;;;;5093648;28;20120;-72
2022/04/16 09:29:54;;;;;;;0.65;0.50;;;17.60;56.60;;;;;;5093644;28;20082;-73
2022/04/16 09:32:25;;;;;;;1.05;0.80;;;18.00;56.20;;;;;;5093711;28;20055;-71
2022/04/16 09:34:53;;;;;;;1.65;0.70;;;18.80;54.60;;;;;;5093209;28;20112;-71
2022/04/16 09:37:23;;;;;;;0.80;0.80;;;19.10;52.70;;;;;;5093860;28;20070;-72
2022/04/16 09:39:50;;;;;;;0.82;0.75;;;18.50;52.60;;;;;;5093978;28;20048;-72
2022/04/16 09:42:25;;;;;;;0.95;0.57;;;18.10;53.90;;;;;;5094070;28;20059;-72
2022/04/16 09:44:52;;;;;;;2.22;0.80;;;18.00;53.20;;;;;;5094132;28;20054;-72
2022/04/16 09:47:23;;;;;;;2.08;0.90;;;18.00;52.60;;;;;;5093942;28;20055;-73
2022/04/16 09:49:52;;;;;;;1.42;1.00;;;18.20;52.80;;;;;;5093748;28;20101;-73
2022/04/16 09:52:23;;;;;;;1.73;1.00;;;18.30;52.30;;;;;;5093493;28;20048;-72
2022/04/16 09:54:51;;;;;;;0.73;0.65;;;19.00;52.90;;;;;;5093452;28;20048;-72
2022/04/16 09:57:24;;;;;;;1.40;1.20;;;19.50;51.60;;;;;;5093397;28;20052;-71
2022/04/16 09:59:55;;;;;;;5.75;1.27;;;19.70;51.50;;;;;;5093201;28;20048;-72
2022/04/16 10:02:22;;;;;;;1.15;1.05;;;20.10;51.80;;;;;;5094682;28;20455;-72
2022/04/16 10:04:49;;;;;;;1.95;1.35;;;19.50;50.70;;;;;;5097602;28;20052;-71
2022/04/16 10:07:16;;;;;;;1.42;1.02;;;19.00;51.30;;;;;;5097469;28;20043;-72
2022/04/16 10:09:52;;;;;;;2.45;1.10;;;19.00;52.60;;;;;;5098808;28;20048;-73
2022/04/16 10:15:09;;;;;;;1.23;0.80;;;19.20;52.40;;;;;;5101594;28;20063;-72
2022/04/16 10:17:41;;;;;;;64.07;57.95;;;19.60;52.50;;;;;;5100692;28;20051;-73
2022/04/16 10:20:11;;;;;;;1.85;1.40;;;20.30;50.60;;;;;;5100780;28;20052;-73
2022/04/16 10:22:38;;;;;;;1.48;1.00;;;20.40;50.40;;;;;;5100502;28;20048;-72
2022/04/16 10:25:08;;;;;;;1.10;1.10;;;20.80;50.80;;;;;;5099638;28;20412;-73
2022/04/16 10:27:40;;;;;;;1.67;1.58;;;20.90;49.60;;;;;;5098314;28;20044;-72
2022/04/16 10:30:10;;;;;;;1.45;1.35;;;20.50;49.60;;;;;;5096926;28;20128;-72
2022/04/16 10:32:39;;;;;;;1.50;1.40;;;19.80;50.30;;;;;;5096477;28;20094;-71
2022/04/16 10:35:08;;;;;;;2.92;1.50;;;19.60;50.20;;;;;;5096891;28;20052;-71
2022/04/16 10:37:38;;;;;;;1.70;1.60;;;19.20;50.80;;;;;;5096840;28;20097;-72
2022/04/16 10:40:17;;;;;;;1.77;1.67;;;19.70;51.10;;;;;;5096737;28;20051;-73
2022/04/16 10:42:48;;;;;;;2.42;2.22;;;20.60;50.40;;;;;;5096532;28;20274;-71
2022/04/16 10:45:15;;;;;;;3.53;3.05;;;20.90;49.90;;;;;;5096688;28;20104;-72
2022/04/16 10:47:43;;;;;;;3.58;3.13;;;21.10;49.60;;;;;;5096421;28;20040;-72
2022/04/16 10:50:14;;;;;;;2.45;2.25;;;21.40;48.80;;;;;;5096457;28;20451;-72
2022/04/16 10:52:51;;;;;;;;;;;21.50;48.10;;;;;;5097050;28;20052;-72
2022/04/16 10:55:23;;;;;;;6.72;3.95;;;21.70;48.10;;;;;;5096434;28;19973;-72
2022/04/16 10:57:57;;;;;;;3.60;3.30;;;22.00;47.60;;;;;;5096343;28;20047;-72
2022/04/16 11:00:36;;;;;;;3.55;3.25;;;22.40;47.10;;;;;;5096382;28;20451;-73
2022/04/16 11:03:10;;;;;;;2.60;1.83;;;22.90;46.50;;;;;;5096183;28;20105;-72
2022/04/16 11:05:37;;;;;;;3.22;2.70;;;22.90;44.90;;;;;;5096145;28;20044;-72
2022/04/16 11:08:05;;;;;;;3.47;2.20;;;22.90;44.30;;;;;;5095819;28;20056;-72
2022/04/16 11:10:34;;;;;;;2.38;2.10;;;23.30;44.50;;;;;;5096060;28;20106;-72
2022/04/16 11:13:01;;;;;;;3.70;2.40;;;23.00;44.00;;;;;;5095293;28;20418;-72
2022/04/16 11:15:28;;;;;;;2.50;2.30;;;22.80;45.90;;;;;;5095043;28;20139;-71
2022/04/16 11:17:55;;;;;;;61.80;11.05;;;22.40;45.00;;;;;;5095823;28;20459;-72
2022/04/16 11:20:23;;;;;;;2.80;1.92;;;22.90;45.40;;;;;;5096008;28;20048;-71
2022/04/16 11:22:50;;;;;;;3.75;2.25;;;22.90;44.60;;;;;;5095876;28;20465;-72
2022/04/16 11:25:16;;;;;;;2.53;1.52;;;22.70;44.20;;;;;;5095766;28;20415;-72
2022/04/16 11:36:07;;;;;;;1.60;1.50;;;23.80;43.20;;;;;;5095532;28;20055;-72
2022/04/16 11:38:35;;;;;;;2.55;2.33;;;23.50;42.90;;;;;;5095717;28;20451;-73
2022/04/16 11:41:04;;;;;;;2.17;1.42;;;23.90;42.20;;;;;;5095444;28;20467;-72
2022/04/16 11:43:33;;;;;;;1.88;1.55;;;24.40;41.10;;;;;;5095468;28;20059;-72
2022/04/16 11:46:01;;;;;;;2.97;1.67;;;24.30;40.30;;;;;;5095107;28;20459;-73
2022/04/16 11:48:28;;;;;;;1.42;1.33;;;24.50;40.10;;;;;;5094997;28;20397;-72
2022/04/16 11:50:55;;;;;;;1.63;1.38;;;23.80;40.70;;;;;;5095315;28;20048;-73
2022/04/16 11:53:22;;;;;;;2.28;2.05;;;22.90;40.80;;;;;;5095165;28;20048;-72
2022/04/16 11:55:50;;;;;;;1.95;0.90;;;21.90;41.80;;;;;;5095275;28;20097;-73
2022/04/16 11:58:17;;;;;;;1.85;1.20;;;21.40;42.40;;;;;;5094848;28;20543;-72
2022/04/16 12:00:55;;;;;;;1.30;1.20;;;21.00;43.80;;;;;;5095064;28;20051;-72
2022/04/16 12:03:22;;;;;;;1.75;1.05;;;21.70;43.70;;;;;;5095446;28;20051;-71
2022/04/16 12:05:50;;;;;;;1.20;0.80;;;22.20;42.10;;;;;;5095130;28;20059;-72
2022/04/16 12:08:20;;;;;;;1.20;1.00;;;22.30;41.40;;;;;;5094688;28;20059;-72
2022/04/16 12:10:47;;;;;;;0.95;0.95;;;22.00;42.10;;;;;;5094840;28;20048;-73
2022/04/16 12:13:15;;;;;;;1.40;0.90;;;22.40;42.40;;;;;;5095024;28;20051;-73
2022/04/16 12:15:43;;;;;;;1.48;1.00;;;23.00;42.00;;;;;;5094612;28;20048;-74
2022/04/16 12:18:12;;;;;;;1.02;0.60;;;22.90;40.30;;;;;;5094871;28;20051;-75
2022/04/16 12:20:43;;;;;;;0.75;0.73;;;22.00;40.90;;;;;;5094629;28;20440;-75
2022/04/16 12:23:13;;;;;;;79.00;15.88;;;22.60;41.90;;;;;;5094573;28;20109;-73
2022/04/16 12:25:41;;;;;;;0.70;0.70;;;22.40;40.30;;;;;;5094374;28;20055;-74
2022/04/16 12:28:10;;;;;;;2.35;0.77;;;22.30;40.40;;;;;;5094516;28;20052;-73
2022/04/16 12:30:38;;;;;;;1.63;0.60;;;22.80;39.80;;;;;;5094518;28;20058;-73
2022/04/16 12:33:06;;;;;;;0.50;0.40;;;23.20;38.90;;;;;;5094321;28;20051;-74
2022/04/16 12:35:35;;;;;;;0.95;0.60;;;23.20;37.90;;;;;;5094383;28;20055;-74
2022/04/16 12:38:03;;;;;;;0.40;0.40;;;23.20;38.60;;;;;;5094218;28;20052;-74
2022/04/16 12:40:32;;;;;;;0.47;0.47;;;22.90;36.50;;;;;;5094465;28;20117;-74
2022/04/16 12:43:00;;;;;;;1.20;0.50;;;22.30;37.00;;;;;;5094270;28;20055;-74
2022/04/16 12:45:28;;;;;;;1.67;0.80;;;22.00;37.70;;;;;;5094366;28;20051;-73
2022/04/16 12:47:55;;;;;;;2.15;0.70;;;22.00;37.70;;;;;;5094254;28;20051;-73
2022/04/16 12:50:22;;;;;;;1.88;1.00;;;21.40;37.90;;;;;;5093547;28;20547;-74
2022/04/16 12:52:50;;;;;;;0.88;0.60;;;21.60;39.00;;;;;;5094174;28;20047;-74
2022/04/16 12:55:17;;;;;;;0.80;0.60;;;21.80;38.00;;;;;;5094083;28;20048;-74
2022/04/16 12:57:44;;;;;;;0.77;0.70;;;22.20;37.60;;;;;;5094007;28;20098;-73
2022/04/16 13:00:12;;;;;;;0.57;0.50;;;22.50;37.80;;;;;;5094107;28;20044;-74
2022/04/16 13:02:41;;;;;;;1.33;0.60;;;22.20;37.00;;;;;;5094046;28;20056;-74
2022/04/16 13:05:09;;;;;;;1.38;0.55;;;22.20;37.30;;;;;;5093523;28;20508;-74
2022/04/16 13:07:36;;;;;;;1.10;1.08;;;21.50;37.80;;;;;;5093627;28;20052;-74
2022/04/16 13:10:05;;;;;;;1.23;0.88;;;21.60;39.40;;;;;;5093791;28;20397;-74
2022/04/16 13:12:32;;;;;;;0.82;0.70;;;21.70;39.50;;;;;;5093937;28;20076;-74
2022/04/16 13:14:59;;;;;;;1.35;0.70;;;21.80;37.50;;;;;;5094001;28;20044;-74
2022/04/16 13:17:25;;;;;;;0.73;0.73;;;21.30;36.80;;;;;;5093834;28;20129;-74
2022/04/16 13:19:52;;;;;;;1.58;0.60;;;20.70;37.30;;;;;;5093704;28;20093;-74